sensor_id;sensor_type;location;lat;lon;timestamp;P1;durP1;ratioP1;P2;durP2;ratioP2
34489;SDS011;20730;49.372;7.324;2023-09-19T00:02:21;6.57;;;4.20;;
34489;SDS011;20730;49.372;7.324;2023-09-19T00:04:48;7.22;;;4.35;;
34489;SDS011;20730;49.372;7.324;2023-09-19T00:07:16;8.43;;;3.78;;
34489;SDS011;20730;49.372;7.324;2023-09-19T00:09:44;8.57;;;3.80;;
34489;SDS011;20730;49.372;7.324;2023-09-19T00:12:10;8.43;;;4.22;;
34489;SDS011;20730;49.372;7.324;2023-09-19T00:14:39;8.05;;;4.50;;
34489;SDS011;20730;49.372;7.324;2023-09-19T00:17:06;8.30;;;4.97;;
34489;SDS011;20730;49.372;7.324;2023-09-19T00:19:36;7.53;;;4.90;;
34489;SDS011;20730;49.372;7.324;2023-09-19T00:22:03;8.05;;;5.03;;
34489;SDS011;20730;49.372;7.324;2023-09-19T00:24:30;6.55;;;4.72;;
34489;SDS011;20730;49.372;7.324;2023-09-19T00:26:57;8.80;;;5.10;;
34489;SDS011;20730;49.372;7.324;2023-09-19T00:29:25;7.13;;;5.28;;
34489;SDS011;20730;49.372;7.324;2023-09-19T00:31:55;8.98;;;5.63;;
34489;SDS011;20730;49.372;7.324;2023-09-19T00:34:23;7.68;;;5.55;;
34489;SDS011;20730;49.372;7.324;2023-09-19T00:36:51;7.45;;;4.85;;
34489;SDS011;20730;49.372;7.324;2023-09-19T00:39:19;7.22;;;4.00;;
34489;SDS011;20730;49.372;7.324;2023-09-19T00:41:46;6.85;;;4.00;;
34489;SDS011;20730;49.372;7.324;2023-09-19T00:44:14;7.53;;;3.30;;
34489;SDS011;20730;49.372;7.324;2023-09-19T00:46:42;4.47;;;3.08;;
34489;SDS011;20730;49.372;7.324;2023-09-19T00:49:09;5.40;;;3.05;;
34489;SDS011;20730;49.372;7.324;2023-09-19T00:51:36;4.95;;;3.55;;
34489;SDS011;20730;49.372;7.324;2023-09-19T00:54:03;5.15;;;3.50;;
34489;SDS011;20730;49.372;7.324;2023-09-19T00:56:30;4.13;;;3.33;;
34489;SDS011;20730;49.372;7.324;2023-09-19T00:58:58;6.32;;;2.95;;
34489;SDS011;20730;49.372;7.324;2023-09-19T01:01:25;4.90;;;2.92;;
34489;SDS011;20730;49.372;7.324;2023-09-19T01:03:52;6.68;;;3.67;;
34489;SDS011;20730;49.372;7.324;2023-09-19T01:06:19;7.38;;;4.28;;
34489;SDS011;20730;49.372;7.324;2023-09-19T01:08:46;5.93;;;4.30;;
34489;SDS011;20730;49.372;7.324;2023-09-19T01:11:58;5.38;;;4.38;;
34489;SDS011;20730;49.372;7.324;2023-09-19T01:14:13;8.90;;;4.47;;
34489;SDS011;20730;49.372;7.324;2023-09-19T01:16:50;10.45;;;4.70;;
34489;SDS011;20730;49.372;7.324;2023-09-19T01:19:28;7.45;;;4.40;;
34489;SDS011;20730;49.372;7.324;2023-09-19T01:22:21;6.90;;;4.60;;
34489;SDS011;20730;49.372;7.324;2023-09-19T01:30:39;5.95;;;4.43;;
34489;SDS011;20730;49.372;7.324;2023-09-19T01:33:06;7.10;;;5.40;;
34489;SDS011;20730;49.372;7.324;2023-09-19T01:35:34;8.98;;;5.13;;
34489;SDS011;20730;49.372;7.324;2023-09-19T01:38:05;6.80;;;5.20;;
34489;SDS011;20730;49.372;7.324;2023-09-19T01:40:37;9.07;;;5.20;;
34489;SDS011;20730;49.372;7.324;2023-09-19T01:51:00;14.38;;;5.65;;
34489;SDS011;20730;49.372;7.324;2023-09-19T01:54:03;8.90;;;5.20;;
34489;SDS011;20730;49.372;7.324;2023-09-19T01:57:07;10.98;;;5.18;;
34489;SDS011;20730;49.372;7.324;2023-09-19T01:59:25;8.38;;;5.70;;
34489;SDS011;20730;49.372;7.324;2023-09-19T02:01:57;7.80;;;5.25;;
34489;SDS011;20730;49.372;7.324;2023-09-19T02:04:24;5.82;;;5.22;;
34489;SDS011;20730;49.372;7.324;2023-09-19T02:06:51;8.45;;;5.25;;
34489;SDS011;20730;49.372;7.324;2023-09-19T02:09:18;9.50;;;5.25;;
34489;SDS011;20730;49.372;7.324;2023-09-19T02:11:44;10.82;;;4.60;;
34489;SDS011;20730;49.372;7.324;2023-09-19T02:14:11;10.10;;;4.38;;
34489;SDS011;20730;49.372;7.324;2023-09-19T02:16:38;10.68;;;4.05;;
34489;SDS011;20730;49.372;7.324;2023-09-19T02:19:05;9.57;;;3.75;;
34489;SDS011;20730;49.372;7.324;2023-09-19T02:21:32;9.23;;;4.20;;
34489;SDS011;20730;49.372;7.324;2023-09-19T02:23:59;9.30;;;3.88;;
34489;SDS011;20730;49.372;7.324;2023-09-19T02:26:26;9.38;;;3.97;;
34489;SDS011;20730;49.372;7.324;2023-09-19T02:28:54;8.95;;;3.63;;
34489;SDS011;20730;49.372;7.324;2023-09-19T02:31:20;10.15;;;3.70;;
34489;SDS011;20730;49.372;7.324;2023-09-19T02:33:47;8.82;;;3.92;;
34489;SDS011;20730;49.372;7.324;2023-09-19T02:36:14;7.47;;;3.40;;
34489;SDS011;20730;49.372;7.324;2023-09-19T02:38:43;8.10;;;3.50;;
34489;SDS011;20730;49.372;7.324;2023-09-19T02:41:10;6.05;;;3.42;;
34489;SDS011;20730;49.372;7.324;2023-09-19T02:43:37;9.63;;;3.80;;
34489;SDS011;20730;49.372;7.324;2023-09-19T02:46:04;7.10;;;3.60;;
34489;SDS011;20730;49.372;7.324;2023-09-19T02:48:32;8.40;;;3.72;;
34489;SDS011;20730;49.372;7.324;2023-09-19T02:51:00;10.05;;;3.78;;
34489;SDS011;20730;49.372;7.324;2023-09-19T02:53:28;11.23;;;4.00;;
34489;SDS011;20730;49.372;7.324;2023-09-19T02:55:54;15.02;;;4.25;;
34489;SDS011;20730;49.372;7.324;2023-09-19T02:58:22;11.15;;;4.13;;
34489;SDS011;20730;49.372;7.324;2023-09-19T03:00:50;7.40;;;3.55;;
34489;SDS011;20730;49.372;7.324;2023-09-19T03:03:18;8.57;;;4.25;;
34489;SDS011;20730;49.372;7.324;2023-09-19T03:05:45;9.25;;;3.78;;
34489;SDS011;20730;49.372;7.324;2023-09-19T03:08:15;8.07;;;3.55;;
34489;SDS011;20730;49.372;7.324;2023-09-19T03:10:46;15.88;;;4.72;;
34489;SDS011;20730;49.372;7.324;2023-09-19T03:13:14;10.02;;;3.92;;
34489;SDS011;20730;49.372;7.324;2023-09-19T03:15:42;9.32;;;3.67;;
34489;SDS011;20730;49.372;7.324;2023-09-19T03:18:26;9.05;;;3.97;;
34489;SDS011;20730;49.372;7.324;2023-09-19T03:20:54;7.40;;;4.10;;
34489;SDS011;20730;49.372;7.324;2023-09-19T03:23:22;10.25;;;4.30;;
34489;SDS011;20730;49.372;7.324;2023-09-19T03:25:49;11.60;;;4.35;;
34489;SDS011;20730;49.372;7.324;2023-09-19T03:28:16;9.13;;;4.28;;
34489;SDS011;20730;49.372;7.324;2023-09-19T03:30:44;7.43;;;4.20;;
34489;SDS011;20730;49.372;7.324;2023-09-19T03:33:11;12.40;;;5.03;;
34489;SDS011;20730;49.372;7.324;2023-09-19T03:35:39;9.73;;;4.38;;
34489;SDS011;20730;49.372;7.324;2023-09-19T03:38:06;10.15;;;4.82;;
34489;SDS011;20730;49.372;7.324;2023-09-19T03:40:33;8.20;;;4.35;;
34489;SDS011;20730;49.372;7.324;2023-09-19T03:43:03;10.93;;;4.40;;
34489;SDS011;20730;49.372;7.324;2023-09-19T03:45:30;10.52;;;4.60;;
34489;SDS011;20730;49.372;7.324;2023-09-19T03:47:57;13.35;;;4.05;;
34489;SDS011;20730;49.372;7.324;2023-09-19T03:50:24;11.07;;;4.13;;
34489;SDS011;20730;49.372;7.324;2023-09-19T03:52:55;11.68;;;3.78;;
34489;SDS011;20730;49.372;7.324;2023-09-19T03:55:23;13.38;;;3.80;;
34489;SDS011;20730;49.372;7.324;2023-09-19T03:57:50;9.43;;;3.47;;
34489;SDS011;20730;49.372;7.324;2023-09-19T04:00:17;12.13;;;3.85;;
34489;SDS011;20730;49.372;7.324;2023-09-19T04:02:48;10.90;;;3.67;;
34489;SDS011;20730;49.372;7.324;2023-09-19T04:05:15;11.15;;;3.65;;
34489;SDS011;20730;49.372;7.324;2023-09-19T04:07:41;11.70;;;3.55;;
34489;SDS011;20730;49.372;7.324;2023-09-19T04:10:08;8.60;;;3.88;;
34489;SDS011;20730;49.372;7.324;2023-09-19T04:12:37;9.87;;;3.30;;
34489;SDS011;20730;49.372;7.324;2023-09-19T04:15:05;11.52;;;4.05;;
34489;SDS011;20730;49.372;7.324;2023-09-19T04:17:32;12.23;;;3.35;;
34489;SDS011;20730;49.372;7.324;2023-09-19T04:20:03;10.55;;;3.55;;
34489;SDS011;20730;49.372;7.324;2023-09-19T04:22:34;13.30;;;4.25;;
34489;SDS011;20730;49.372;7.324;2023-09-19T04:25:01;13.85;;;4.43;;
34489;SDS011;20730;49.372;7.324;2023-09-19T04:27:28;10.95;;;4.20;;
34489;SDS011;20730;49.372;7.324;2023-09-19T04:29:55;16.13;;;4.50;;
34489;SDS011;20730;49.372;7.324;2023-09-19T04:32:28;9.95;;;4.45;;
34489;SDS011;20730;49.372;7.324;2023-09-19T04:34:55;14.18;;;5.10;;
34489;SDS011;20730;49.372;7.324;2023-09-19T04:37:26;13.15;;;5.78;;
34489;SDS011;20730;49.372;7.324;2023-09-19T04:39:53;10.27;;;5.47;;
34489;SDS011;20730;49.372;7.324;2023-09-19T04:42:20;11.85;;;5.40;;
34489;SDS011;20730;49.372;7.324;2023-09-19T04:44:48;13.95;;;5.45;;
34489;SDS011;20730;49.372;7.324;2023-09-19T04:47:16;10.63;;;5.28;;
34489;SDS011;20730;49.372;7.324;2023-09-19T04:49:43;13.80;;;5.35;;
34489;SDS011;20730;49.372;7.324;2023-09-19T04:52:09;12.25;;;5.75;;
34489;SDS011;20730;49.372;7.324;2023-09-19T04:54:36;7.55;;;4.95;;
34489;SDS011;20730;49.372;7.324;2023-09-19T04:57:04;15.57;;;4.68;;
34489;SDS011;20730;49.372;7.324;2023-09-19T04:59:32;6.40;;;3.78;;
34489;SDS011;20730;49.372;7.324;2023-09-19T05:01:58;13.60;;;4.35;;
34489;SDS011;20730;49.372;7.324;2023-09-19T05:04:25;10.98;;;4.00;;
34489;SDS011;20730;49.372;7.324;2023-09-19T05:06:52;8.43;;;4.43;;
34489;SDS011;20730;49.372;7.324;2023-09-19T05:09:20;8.70;;;4.97;;
34489;SDS011;20730;49.372;7.324;2023-09-19T05:11:46;8.30;;;4.28;;
34489;SDS011;20730;49.372;7.324;2023-09-19T05:14:13;9.43;;;4.35;;
34489;SDS011;20730;49.372;7.324;2023-09-19T05:16:40;8.75;;;4.80;;
34489;SDS011;20730;49.372;7.324;2023-09-19T05:19:07;9.98;;;5.25;;
34489;SDS011;20730;49.372;7.324;2023-09-19T05:21:34;7.65;;;4.88;;
34489;SDS011;20730;49.372;7.324;2023-09-19T05:24:01;9.63;;;4.95;;
34489;SDS011;20730;49.372;7.324;2023-09-19T05:26:28;9.52;;;5.03;;
34489;SDS011;20730;49.372;7.324;2023-09-19T05:28:55;10.90;;;5.15;;
34489;SDS011;20730;49.372;7.324;2023-09-19T05:31:21;9.35;;;4.78;;
34489;SDS011;20730;49.372;7.324;2023-09-19T05:33:50;10.05;;;4.43;;
34489;SDS011;20730;49.372;7.324;2023-09-19T05:36:17;10.25;;;4.45;;
34489;SDS011;20730;49.372;7.324;2023-09-19T05:38:44;11.25;;;4.05;;
34489;SDS011;20730;49.372;7.324;2023-09-19T05:41:11;8.07;;;3.03;;
34489;SDS011;20730;49.372;7.324;2023-09-19T05:43:40;10.35;;;4.07;;
34489;SDS011;20730;49.372;7.324;2023-09-19T05:46:08;9.60;;;3.30;;
34489;SDS011;20730;49.372;7.324;2023-09-19T05:48:34;11.57;;;3.17;;
34489;SDS011;20730;49.372;7.324;2023-09-19T05:51:02;11.77;;;3.28;;
34489;SDS011;20730;49.372;7.324;2023-09-19T05:53:29;10.90;;;3.80;;
34489;SDS011;20730;49.372;7.324;2023-09-19T05:55:56;10.75;;;3.40;;
34489;SDS011;20730;49.372;7.324;2023-09-19T05:58:23;12.35;;;3.55;;
34489;SDS011;20730;49.372;7.324;2023-09-19T06:00:50;12.50;;;2.80;;
34489;SDS011;20730;49.372;7.324;2023-09-19T06:03:17;13.45;;;3.70;;
34489;SDS011;20730;49.372;7.324;2023-09-19T06:05:45;11.40;;;3.50;;
34489;SDS011;20730;49.372;7.324;2023-09-19T06:08:12;7.18;;;3.08;;
34489;SDS011;20730;49.372;7.324;2023-09-19T06:10:39;9.55;;;4.00;;
34489;SDS011;20730;49.372;7.324;2023-09-19T06:13:06;10.98;;;4.38;;
34489;SDS011;20730;49.372;7.324;2023-09-19T06:15:36;10.80;;;4.35;;
34489;SDS011;20730;49.372;7.324;2023-09-19T06:18:03;8.90;;;3.90;;
34489;SDS011;20730;49.372;7.324;2023-09-19T06:20:31;16.05;;;4.18;;
34489;SDS011;20730;49.372;7.324;2023-09-19T06:22:59;16.52;;;3.92;;
34489;SDS011;20730;49.372;7.324;2023-09-19T06:25:28;7.70;;;3.70;;
34489;SDS011;20730;49.372;7.324;2023-09-19T06:27:55;9.98;;;3.47;;
34489;SDS011;20730;49.372;7.324;2023-09-19T06:30:23;7.93;;;3.30;;
34489;SDS011;20730;49.372;7.324;2023-09-19T06:32:58;7.50;;;3.35;;
34489;SDS011;20730;49.372;7.324;2023-09-19T06:35:26;7.65;;;3.00;;
34489;SDS011;20730;49.372;7.324;2023-09-19T06:37:53;9.60;;;2.97;;
34489;SDS011;20730;49.372;7.324;2023-09-19T06:40:20;7.72;;;3.00;;
34489;SDS011;20730;49.372;7.324;2023-09-19T06:42:51;12.77;;;3.20;;
34489;SDS011;20730;49.372;7.324;2023-09-19T06:45:19;11.13;;;3.60;;
34489;SDS011;20730;49.372;7.324;2023-09-19T06:47:51;12.60;;;3.38;;
34489;SDS011;20730;49.372;7.324;2023-09-19T06:50:18;10.35;;;3.42;;
34489;SDS011;20730;49.372;7.324;2023-09-19T06:52:49;13.13;;;3.22;;
34489;SDS011;20730;49.372;7.324;2023-09-19T06:55:18;7.30;;;2.90;;
34489;SDS011;20730;49.372;7.324;2023-09-19T06:57:47;7.90;;;2.42;;
34489;SDS011;20730;49.372;7.324;2023-09-19T07:00:14;9.70;;;2.83;;
34489;SDS011;20730;49.372;7.324;2023-09-19T07:02:57;8.80;;;2.53;;
34489;SDS011;20730;49.372;7.324;2023-09-19T07:05:27;9.57;;;2.60;;
34489;SDS011;20730;49.372;7.324;2023-09-19T07:07:54;8.10;;;2.55;;
34489;SDS011;20730;49.372;7.324;2023-09-19T07:10:22;10.35;;;2.88;;
34489;SDS011;20730;49.372;7.324;2023-09-19T07:12:57;8.70;;;2.72;;
34489;SDS011;20730;49.372;7.324;2023-09-19T07:15:28;10.63;;;2.78;;
34489;SDS011;20730;49.372;7.324;2023-09-19T07:17:56;10.60;;;2.70;;
34489;SDS011;20730;49.372;7.324;2023-09-19T07:20:23;7.22;;;2.63;;
34489;SDS011;20730;49.372;7.324;2023-09-19T07:22:55;13.57;;;3.00;;
34489;SDS011;20730;49.372;7.324;2023-09-19T07:25:21;9.07;;;2.40;;
34489;SDS011;20730;49.372;7.324;2023-09-19T07:27:49;10.57;;;2.78;;
34489;SDS011;20730;49.372;7.324;2023-09-19T07:30:17;12.90;;;2.60;;
34489;SDS011;20730;49.372;7.324;2023-09-19T07:32:44;9.88;;;2.83;;
34489;SDS011;20730;49.372;7.324;2023-09-19T07:35:11;13.13;;;2.83;;
34489;SDS011;20730;49.372;7.324;2023-09-19T07:37:38;11.27;;;2.53;;
34489;SDS011;20730;49.372;7.324;2023-09-19T07:40:05;12.35;;;2.45;;
34489;SDS011;20730;49.372;7.324;2023-09-19T07:42:36;12.23;;;2.65;;
34489;SDS011;20730;49.372;7.324;2023-09-19T07:45:07;10.35;;;2.22;;
34489;SDS011;20730;49.372;7.324;2023-09-19T07:47:34;15.02;;;2.85;;
34489;SDS011;20730;49.372;7.324;2023-09-19T07:50:02;11.57;;;2.25;;
34489;SDS011;20730;49.372;7.324;2023-09-19T07:52:29;15.80;;;2.55;;
34489;SDS011;20730;49.372;7.324;2023-09-19T07:54:56;13.02;;;2.50;;
34489;SDS011;20730;49.372;7.324;2023-09-19T07:57:24;12.10;;;3.10;;
34489;SDS011;20730;49.372;7.324;2023-09-19T07:59:51;14.25;;;2.22;;
34489;SDS011;20730;49.372;7.324;2023-09-19T08:02:18;15.32;;;2.38;;
34489;SDS011;20730;49.372;7.324;2023-09-19T08:04:45;10.10;;;2.25;;
34489;SDS011;20730;49.372;7.324;2023-09-19T08:07:15;12.25;;;2.38;;
34489;SDS011;20730;49.372;7.324;2023-09-19T08:09:42;9.00;;;2.47;;
34489;SDS011;20730;49.372;7.324;2023-09-19T08:14:39;13.18;;;2.38;;
34489;SDS011;20730;49.372;7.324;2023-09-19T08:17:08;12.13;;;3.08;;
34489;SDS011;20730;49.372;7.324;2023-09-19T08:19:34;8.88;;;2.03;;
34489;SDS011;20730;49.372;7.324;2023-09-19T08:22:02;12.27;;;2.38;;
34489;SDS011;20730;49.372;7.324;2023-09-19T08:24:30;9.88;;;2.20;;
34489;SDS011;20730;49.372;7.324;2023-09-19T08:26:57;8.55;;;2.35;;
34489;SDS011;20730;49.372;7.324;2023-09-19T08:29:24;11.73;;;2.45;;
34489;SDS011;20730;49.372;7.324;2023-09-19T08:31:54;13.15;;;2.58;;
34489;SDS011;20730;49.372;7.324;2023-09-19T08:34:23;10.02;;;2.35;;
34489;SDS011;20730;49.372;7.324;2023-09-19T08:36:51;9.95;;;2.10;;
34489;SDS011;20730;49.372;7.324;2023-09-19T08:39:19;14.38;;;2.75;;
34489;SDS011;20730;49.372;7.324;2023-09-19T08:41:46;9.27;;;2.22;;
34489;SDS011;20730;49.372;7.324;2023-09-19T08:44:13;9.38;;;2.00;;
34489;SDS011;20730;49.372;7.324;2023-09-19T08:46:41;6.90;;;1.70;;
34489;SDS011;20730;49.372;7.324;2023-09-19T08:49:13;7.10;;;2.08;;
34489;SDS011;20730;49.372;7.324;2023-09-19T08:51:54;11.07;;;2.13;;
34489;SDS011;20730;49.372;7.324;2023-09-19T08:54:28;14.02;;;2.25;;
34489;SDS011;20730;49.372;7.324;2023-09-19T08:57:00;8.60;;;2.30;;
34489;SDS011;20730;49.372;7.324;2023-09-19T08:59:31;5.03;;;1.73;;
34489;SDS011;20730;49.372;7.324;2023-09-19T09:04:30;10.75;;;2.28;;
34489;SDS011;20730;49.372;7.324;2023-09-19T09:06:57;6.57;;;2.00;;
34489;SDS011;20730;49.372;7.324;2023-09-19T09:09:24;8.00;;;2.35;;
34489;SDS011;20730;49.372;7.324;2023-09-19T09:11:51;12.57;;;2.35;;
34489;SDS011;20730;49.372;7.324;2023-09-19T09:14:20;9.93;;;2.55;;
34489;SDS011;20730;49.372;7.324;2023-09-19T09:16:47;9.95;;;2.10;;
34489;SDS011;20730;49.372;7.324;2023-09-19T09:19:15;9.20;;;1.85;;
34489;SDS011;20730;49.372;7.324;2023-09-19T09:21:51;11.05;;;2.65;;
34489;SDS011;20730;49.372;7.324;2023-09-19T09:26:56;9.90;;;2.63;;
34489;SDS011;20730;49.372;7.324;2023-09-19T09:29:39;8.95;;;2.35;;
34489;SDS011;20730;49.372;7.324;2023-09-19T09:32:16;11.32;;;2.03;;
34489;SDS011;20730;49.372;7.324;2023-09-19T09:34:44;9.07;;;2.13;;
34489;SDS011;20730;49.372;7.324;2023-09-19T09:37:16;10.75;;;2.22;;
34489;SDS011;20730;49.372;7.324;2023-09-19T09:39:50;11.38;;;1.83;;
34489;SDS011;20730;49.372;7.324;2023-09-19T09:42:37;8.43;;;2.00;;
34489;SDS011;20730;49.372;7.324;2023-09-19T09:45:18;9.75;;;2.30;;
34489;SDS011;20730;49.372;7.324;2023-09-19T09:48:04;11.98;;;2.00;;
34489;SDS011;20730;49.372;7.324;2023-09-19T09:50:47;5.63;;;1.90;;
34489;SDS011;20730;49.372;7.324;2023-09-19T09:53:21;6.90;;;2.22;;
34489;SDS011;20730;49.372;7.324;2023-09-19T09:56:03;7.90;;;2.00;;
34489;SDS011;20730;49.372;7.324;2023-09-19T09:58:34;6.28;;;1.70;;
34489;SDS011;20730;49.372;7.324;2023-09-19T10:01:14;6.07;;;1.88;;
34489;SDS011;20730;49.372;7.324;2023-09-19T10:03:44;7.75;;;2.22;;
34489;SDS011;20730;49.372;7.324;2023-09-19T10:06:15;6.82;;;2.30;;
34489;SDS011;20730;49.372;7.324;2023-09-19T10:14:11;7.00;;;1.88;;
34489;SDS011;20730;49.372;7.324;2023-09-19T10:16:40;9.88;;;2.10;;
34489;SDS011;20730;49.372;7.324;2023-09-19T10:19:11;8.30;;;1.95;;
34489;SDS011;20730;49.372;7.324;2023-09-19T10:21:53;6.95;;;1.80;;
34489;SDS011;20730;49.372;7.324;2023-09-19T10:24:21;7.28;;;1.58;;
34489;SDS011;20730;49.372;7.324;2023-09-19T10:26:49;8.40;;;1.58;;
34489;SDS011;20730;49.372;7.324;2023-09-19T10:29:17;6.82;;;1.52;;
34489;SDS011;20730;49.372;7.324;2023-09-19T10:31:46;6.30;;;1.35;;
34489;SDS011;20730;49.372;7.324;2023-09-19T10:34:14;10.50;;;1.92;;
34489;SDS011;20730;49.372;7.324;2023-09-19T10:36:43;5.85;;;1.35;;
34489;SDS011;20730;49.372;7.324;2023-09-19T10:39:12;7.68;;;1.70;;
34489;SDS011;20730;49.372;7.324;2023-09-19T10:41:40;7.72;;;1.40;;
34489;SDS011;20730;49.372;7.324;2023-09-19T10:44:07;5.55;;;1.55;;
34489;SDS011;20730;49.372;7.324;2023-09-19T10:46:35;5.80;;;1.73;;
34489;SDS011;20730;49.372;7.324;2023-09-19T10:49:04;7.40;;;1.83;;
34489;SDS011;20730;49.372;7.324;2023-09-19T10:51:38;4.40;;;1.35;;
34489;SDS011;20730;49.372;7.324;2023-09-19T10:54:08;9.32;;;1.73;;
34489;SDS011;20730;49.372;7.324;2023-09-19T10:56:44;5.57;;;1.40;;
34489;SDS011;20730;49.372;7.324;2023-09-19T10:59:15;5.30;;;1.60;;
34489;SDS011;20730;49.372;7.324;2023-09-19T11:01:46;3.72;;;1.30;;
34489;SDS011;20730;49.372;7.324;2023-09-19T11:04:31;8.93;;;1.23;;
34489;SDS011;20730;49.372;7.324;2023-09-19T11:07:03;7.25;;;1.48;;
34489;SDS011;20730;49.372;7.324;2023-09-19T11:09:49;3.55;;;1.00;;
34489;SDS011;20730;49.372;7.324;2023-09-19T11:14:58;5.72;;;1.30;;
34489;SDS011;20730;49.372;7.324;2023-09-19T11:17:37;6.35;;;1.30;;
34489;SDS011;20730;49.372;7.324;2023-09-19T11:28:27;4.90;;;1.30;;
34489;SDS011;20730;49.372;7.324;2023-09-19T11:30:48;6.72;;;1.27;;
34489;SDS011;20730;49.372;7.324;2023-09-19T11:36:03;4.50;;;1.45;;
34489;SDS011;20730;49.372;7.324;2023-09-19T11:43:48;3.25;;;1.10;;
34489;SDS011;20730;49.372;7.324;2023-09-19T11:46:21;5.57;;;1.08;;
34489;SDS011;20730;49.372;7.324;2023-09-19T11:48:48;4.07;;;1.15;;
34489;SDS011;20730;49.372;7.324;2023-09-19T11:51:16;3.45;;;1.13;;
34489;SDS011;20730;49.372;7.324;2023-09-19T11:53:50;4.90;;;1.48;;
34489;SDS011;20730;49.372;7.324;2023-09-19T11:56:18;5.38;;;1.45;;
34489;SDS011;20730;49.372;7.324;2023-09-19T11:58:48;3.80;;;1.10;;
34489;SDS011;20730;49.372;7.324;2023-09-19T12:01:23;4.85;;;1.27;;
34489;SDS011;20730;49.372;7.324;2023-09-19T12:03:52;2.67;;;1.10;;
34489;SDS011;20730;49.372;7.324;2023-09-19T12:06:20;4.13;;;1.10;;
34489;SDS011;20730;49.372;7.324;2023-09-19T12:08:48;2.72;;;1.30;;
34489;SDS011;20730;49.372;7.324;2023-09-19T12:11:15;4.97;;;1.25;;
34489;SDS011;20730;49.372;7.324;2023-09-19T12:13:46;5.55;;;1.33;;
34489;SDS011;20730;49.372;7.324;2023-09-19T12:16:16;4.65;;;1.27;;
34489;SDS011;20730;49.372;7.324;2023-09-19T12:18:43;6.53;;;1.60;;
34489;SDS011;20730;49.372;7.324;2023-09-19T12:21:27;5.40;;;1.20;;
34489;SDS011;20730;49.372;7.324;2023-09-19T12:26:44;5.15;;;1.27;;
34489;SDS011;20730;49.372;7.324;2023-09-19T12:29:12;6.10;;;1.30;;
34489;SDS011;20730;49.372;7.324;2023-09-19T12:31:53;3.70;;;1.13;;
34489;SDS011;20730;49.372;7.324;2023-09-19T12:37:10;2.28;;;0.98;;
34489;SDS011;20730;49.372;7.324;2023-09-19T12:39:49;3.20;;;0.95;;
34489;SDS011;20730;49.372;7.324;2023-09-19T12:42:19;3.05;;;0.98;;
34489;SDS011;20730;49.372;7.324;2023-09-19T12:44:50;2.03;;;1.00;;
34489;SDS011;20730;49.372;7.324;2023-09-19T12:47:23;6.45;;;1.63;;
34489;SDS011;20730;49.372;7.324;2023-09-19T12:52:51;2.00;;;1.00;;
34489;SDS011;20730;49.372;7.324;2023-09-19T12:55:22;4.38;;;1.27;;
34489;SDS011;20730;49.372;7.324;2023-09-19T13:00:40;3.42;;;1.10;;
34489;SDS011;20730;49.372;7.324;2023-09-19T13:03:13;4.03;;;1.10;;
34489;SDS011;20730;49.372;7.324;2023-09-19T13:05:52;3.28;;;1.08;;
34489;SDS011;20730;49.372;7.324;2023-09-19T13:08:31;2.83;;;1.10;;
34489;SDS011;20730;49.372;7.324;2023-09-19T13:11:02;6.45;;;1.38;;
34489;SDS011;20730;49.372;7.324;2023-09-19T13:16:07;1.92;;;1.08;;
34489;SDS011;20730;49.372;7.324;2023-09-19T13:18:41;4.82;;;1.20;;
34489;SDS011;20730;49.372;7.324;2023-09-19T13:21:14;3.38;;;1.20;;
34489;SDS011;20730;49.372;7.324;2023-09-19T13:23:51;6.22;;;1.20;;
34489;SDS011;20730;49.372;7.324;2023-09-19T13:26:19;1.92;;;0.90;;
34489;SDS011;20730;49.372;7.324;2023-09-19T13:28:46;2.42;;;1.13;;
34489;SDS011;20730;49.372;7.324;2023-09-19T13:31:16;3.58;;;1.20;;
34489;SDS011;20730;49.372;7.324;2023-09-19T13:33:47;3.00;;;1.17;;
34489;SDS011;20730;49.372;7.324;2023-09-19T13:36:15;5.78;;;1.30;;
34489;SDS011;20730;49.372;7.324;2023-09-19T13:38:41;3.85;;;1.05;;
34489;SDS011;20730;49.372;7.324;2023-09-19T13:41:13;2.42;;;1.08;;
34489;SDS011;20730;49.372;7.324;2023-09-19T13:43:40;5.00;;;1.48;;
34489;SDS011;20730;49.372;7.324;2023-09-19T13:46:07;3.50;;;1.20;;
34489;SDS011;20730;49.372;7.324;2023-09-19T13:48:34;3.38;;;1.25;;
34489;SDS011;20730;49.372;7.324;2023-09-19T13:51:02;4.47;;;1.15;;
34489;SDS011;20730;49.372;7.324;2023-09-19T13:53:30;3.60;;;1.13;;
34489;SDS011;20730;49.372;7.324;2023-09-19T13:55:57;5.68;;;1.50;;
34489;SDS011;20730;49.372;7.324;2023-09-19T13:58:24;5.35;;;1.23;;
34489;SDS011;20730;49.372;7.324;2023-09-19T14:00:51;4.32;;;1.10;;
34489;SDS011;20730;49.372;7.324;2023-09-19T14:05:48;3.95;;;1.10;;
34489;SDS011;20730;49.372;7.324;2023-09-19T14:08:18;6.95;;;1.25;;
34489;SDS011;20730;49.372;7.324;2023-09-19T14:10:45;3.50;;;1.20;;
34489;SDS011;20730;49.372;7.324;2023-09-19T14:13:12;2.20;;;1.30;;
34489;SDS011;20730;49.372;7.324;2023-09-19T14:15:40;6.05;;;1.52;;
34489;SDS011;20730;49.372;7.324;2023-09-19T14:18:07;2.55;;;1.17;;
34489;SDS011;20730;49.372;7.324;2023-09-19T14:20:37;2.45;;;1.10;;
34489;SDS011;20730;49.372;7.324;2023-09-19T14:23:06;5.72;;;1.10;;
34489;SDS011;20730;49.372;7.324;2023-09-19T14:25:36;5.93;;;1.10;;
34489;SDS011;20730;49.372;7.324;2023-09-19T14:28:05;3.33;;;1.05;;
34489;SDS011;20730;49.372;7.324;2023-09-19T14:30:34;7.40;;;1.50;;
34489;SDS011;20730;49.372;7.324;2023-09-19T14:33:01;2.88;;;1.20;;
34489;SDS011;20730;49.372;7.324;2023-09-19T14:35:28;5.28;;;1.20;;
34489;SDS011;20730;49.372;7.324;2023-09-19T14:37:55;5.75;;;1.15;;
34489;SDS011;20730;49.372;7.324;2023-09-19T14:40:22;5.20;;;0.93;;
34489;SDS011;20730;49.372;7.324;2023-09-19T14:42:49;2.90;;;1.00;;
34489;SDS011;20730;49.372;7.324;2023-09-19T14:45:18;4.10;;;1.30;;
34489;SDS011;20730;49.372;7.324;2023-09-19T14:47:46;3.83;;;1.42;;
34489;SDS011;20730;49.372;7.324;2023-09-19T14:50:13;5.45;;;1.23;;
34489;SDS011;20730;49.372;7.324;2023-09-19T14:52:41;3.95;;;0.90;;
34489;SDS011;20730;49.372;7.324;2023-09-19T14:55:09;3.35;;;1.50;;
34489;SDS011;20730;49.372;7.324;2023-09-19T14:57:41;2.65;;;1.05;;
34489;SDS011;20730;49.372;7.324;2023-09-19T15:00:11;3.30;;;1.05;;
34489;SDS011;20730;49.372;7.324;2023-09-19T15:02:39;5.57;;;1.85;;
34489;SDS011;20730;49.372;7.324;2023-09-19T15:05:09;5.80;;;1.20;;
34489;SDS011;20730;49.372;7.324;2023-09-19T15:07:36;2.33;;;1.13;;
34489;SDS011;20730;49.372;7.324;2023-09-19T15:10:04;3.47;;;1.52;;
34489;SDS011;20730;49.372;7.324;2023-09-19T15:12:33;3.53;;;1.35;;
34489;SDS011;20730;49.372;7.324;2023-09-19T15:15:01;2.28;;;0.88;;
34489;SDS011;20730;49.372;7.324;2023-09-19T15:17:28;2.72;;;1.00;;
34489;SDS011;20730;49.372;7.324;2023-09-19T15:19:55;3.70;;;1.00;;
34489;SDS011;20730;49.372;7.324;2023-09-19T15:22:22;1.75;;;0.88;;
34489;SDS011;20730;49.372;7.324;2023-09-19T15:24:49;1.40;;;0.90;;
34489;SDS011;20730;49.372;7.324;2023-09-19T15:27:16;3.60;;;1.10;;
34489;SDS011;20730;49.372;7.324;2023-09-19T15:29:46;2.05;;;0.88;;
34489;SDS011;20730;49.372;7.324;2023-09-19T15:32:13;2.35;;;0.93;;
34489;SDS011;20730;49.372;7.324;2023-09-19T15:34:40;1.92;;;0.90;;
34489;SDS011;20730;49.372;7.324;2023-09-19T15:37:06;3.50;;;1.02;;
34489;SDS011;20730;49.372;7.324;2023-09-19T15:39:33;2.38;;;1.00;;
34489;SDS011;20730;49.372;7.324;2023-09-19T15:42:00;4.07;;;1.00;;
34489;SDS011;20730;49.372;7.324;2023-09-19T15:44:27;5.60;;;1.90;;
34489;SDS011;20730;49.372;7.324;2023-09-19T15:46:53;1.98;;;1.00;;
34489;SDS011;20730;49.372;7.324;2023-09-19T15:49:21;4.43;;;1.10;;
34489;SDS011;20730;49.372;7.324;2023-09-19T15:51:49;5.03;;;0.90;;
34489;SDS011;20730;49.372;7.324;2023-09-19T15:54:16;3.00;;;0.82;;
34489;SDS011;20730;49.372;7.324;2023-09-19T15:56:44;2.95;;;0.93;;
34489;SDS011;20730;49.372;7.324;2023-09-19T15:59:12;5.47;;;1.20;;